createdAt,value
2022-08-28T00:00:02.741Z,99965.56
2022-08-28T00:02:29.543Z,99962.94
2022-08-28T00:04:56.398Z,99946.78
2022-08-28T00:07:23.253Z,99935.81
2022-08-28T00:09:50.015Z,99938.94
2022-08-28T00:12:17.070Z,99933.78
2022-08-28T00:14:44.191Z,99943.44
2022-08-28T00:17:11.376Z,99948.72
2022-08-28T00:19:38.911Z,99949.41
2022-08-28T00:22:07.605Z,99952.47
2022-08-28T00:24:35.256Z,99963.19
2022-08-28T00:27:20.346Z,99954.41
2022-08-28T00:29:47.374Z,99936.75
2022-08-28T00:32:14.185Z,99910.41
2022-08-28T00:34:41.115Z,99905.69
2022-08-28T00:37:08.056Z,99916.38
2022-08-28T00:39:34.874Z,99947.59
2022-08-28T00:42:02.055Z,99945.38
2022-08-28T00:44:29.409Z,99936.59
2022-08-28T00:46:58.036Z,99937.66
2022-08-28T00:49:30.424Z,99923.03
2022-08-28T00:52:06.106Z,99937.41
2022-08-28T00:54:34.975Z,99933.03
2022-08-28T00:57:05.256Z,99928.88
2022-08-28T00:59:31.962Z,99935.69
2022-08-28T01:01:59.727Z,99950.00
2022-08-28T01:04:29.733Z,99952.09
2022-08-28T01:06:58.685Z,99948.28
2022-08-28T01:09:29.474Z,99944.25
2022-08-28T01:12:03.279Z,99937.91
2022-08-28T01:14:32.453Z,99927.00
2022-08-28T01:16:59.438Z,99923.41
2022-08-28T01:19:35.287Z,99914.69
2022-08-28T01:22:50.246Z,99916.31
2022-08-28T01:25:20.196Z,99921.78
2022-08-28T01:27:47.056Z,99926.66
2022-08-28T01:30:17.666Z,99923.41
2022-08-28T01:32:48.087Z,99915.72
2022-08-28T01:35:19.155Z,99922.53
2022-08-28T01:37:46.580Z,99919.34
2022-08-28T01:40:17.816Z,99918.78
2022-08-28T01:42:45.109Z,99915.38
2022-08-28T01:45:15.917Z,99918.56
2022-08-28T01:47:44.721Z,99918.22
2022-08-28T01:50:15.610Z,99918.44
2022-08-28T01:52:42.799Z,99933.28
2022-08-28T01:55:11.091Z,99932.69
2022-08-28T01:57:50.658Z,99925.69
2022-08-28T02:00:18.067Z,99918.69
2022-08-28T02:02:44.867Z,99912.69
2022-08-28T02:05:12.187Z,99927.81
2022-08-28T02:07:39.230Z,99918.81
2022-08-28T02:10:08.344Z,99917.31
2022-08-28T02:12:36.048Z,99930.66
2022-08-28T02:15:04.091Z,99934.56
2022-08-28T02:17:30.860Z,99939.84
2022-08-28T02:19:57.634Z,99934.69
2022-08-28T02:22:24.348Z,99937.00
2022-08-28T02:24:51.239Z,99933.16
2022-08-28T02:27:18.492Z,99927.59
2022-08-28T02:29:45.543Z,99927.22
2022-08-28T02:32:12.601Z,99938.34
2022-08-28T02:34:40.442Z,99942.94
2022-08-28T02:37:08.933Z,99939.75
2022-08-28T02:39:35.804Z,99943.22
2022-08-28T02:42:02.658Z,99948.09
2022-08-28T02:44:29.381Z,99941.38
2022-08-28T02:46:56.129Z,99936.88
2022-08-28T02:49:26.017Z,99944.38
2022-08-28T02:51:58.709Z,99948.28
2022-08-28T02:54:26.538Z,99951.03
2022-08-28T02:56:54.478Z,99957.19
2022-08-28T02:59:21.546Z,99959.56
2022-08-28T03:01:48.733Z,99966.53
2022-08-28T03:04:15.769Z,99966.19
2022-08-28T03:06:42.643Z,99962.13
2022-08-28T03:09:09.658Z,99968.00
2022-08-28T03:11:37.165Z,99976.00
2022-08-28T03:14:05.176Z,99970.91
2022-08-28T03:16:32.631Z,99978.66
2022-08-28T03:18:59.625Z,99976.38
2022-08-28T03:21:26.466Z,99976.56
2022-08-28T03:23:53.181Z,99978.09
2022-08-28T03:26:21.088Z,99970.50
2022-08-28T03:28:50.927Z,99971.28
2022-08-28T03:31:22.186Z,99972.06
2022-08-28T03:33:49.587Z,99972.63
2022-08-28T03:36:21.664Z,99966.31
2022-08-28T03:38:49.327Z,99973.31
2022-08-28T03:41:18.494Z,99982.19
2022-08-28T03:43:45.596Z,99981.78
2022-08-28T03:46:15.480Z,99980.53
2022-08-28T03:48:44.952Z,99979.97
2022-08-28T03:51:18.191Z,99979.06
2022-08-28T03:53:45.186Z,99983.50
2022-08-28T03:56:15.711Z,99975.97
2022-08-28T03:58:43.237Z,99985.63
2022-08-28T04:01:10.472Z,99980.34
2022-08-28T04:03:37.517Z,99977.22
2022-08-28T04:06:04.393Z,99986.59
2022-08-28T04:08:31.660Z,99968.75
2022-08-28T04:11:00.999Z,99966.84
2022-08-28T04:13:28.467Z,99964.53
2022-08-28T04:16:07.979Z,99970.69
2022-08-28T04:18:35.747Z,99965.94
2022-08-28T04:21:08.035Z,99966.56
2022-08-28T04:23:45.259Z,99964.41
2022-08-28T04:26:15.087Z,99973.22
2022-08-28T04:28:42.059Z,99972.59
2022-08-28T04:31:09.108Z,99965.09
2022-08-28T04:33:37.420Z,99974.62
2022-08-28T04:36:06.674Z,99974.31
2022-08-28T04:38:33.761Z,99981.88
2022-08-28T04:41:06.792Z,99984.47
2022-08-28T04:43:33.960Z,99984.72
2022-08-28T04:46:08.147Z,99998.59
2022-08-28T04:48:35.883Z,100003.47
2022-08-28T04:51:05.852Z,99998.94
2022-08-28T04:53:33.191Z,99996.53
2022-08-28T04:56:00.856Z,100005.38
2022-08-28T04:58:28.191Z,100005.53
2022-08-28T05:00:55.269Z,100007.25
2022-08-28T05:03:23.132Z,100008.94
2022-08-28T05:05:53.305Z,100013.53
2022-08-28T05:08:23.831Z,100010.53
2022-08-28T05:10:51.141Z,100011.09
2022-08-28T05:13:18.758Z,100012.31
2022-08-28T05:15:49.146Z,100024.94
2022-08-28T05:18:18.665Z,100024.09
2022-08-28T05:20:46.656Z,100029.44
2022-08-28T05:23:15.626Z,100028.38
2022-08-28T05:25:45.569Z,100025.66
2022-08-28T05:28:13.745Z,100032.31
2022-08-28T05:30:42.137Z,100028.88
2022-08-28T05:33:10.572Z,100033.87
2022-08-28T05:35:40.226Z,100029.94
2022-08-28T05:38:07.755Z,100037.66
2022-08-28T05:40:41.127Z,100031.09
2022-08-28T05:43:07.827Z,100033.06
2022-08-28T05:45:34.620Z,100036.75
2022-08-28T05:48:01.375Z,100045.81
2022-08-28T05:50:28.143Z,100050.22
2022-08-28T05:52:54.877Z,100047.91
2022-08-28T05:55:21.916Z,100047.44
2022-08-28T05:57:48.710Z,100051.06
2022-08-28T06:00:15.652Z,100053.84
2022-08-28T06:02:42.744Z,100058.25
2022-08-28T06:05:13.000Z,100052.72
2022-08-28T06:07:41.300Z,100065.84
2022-08-28T06:10:10.621Z,100060.91
2022-08-28T06:12:38.041Z,100069.94
2022-08-28T06:15:06.120Z,100070.06
2022-08-28T06:17:33.077Z,100067.25
2022-08-28T06:19:59.828Z,100064.84
2022-08-28T06:22:26.589Z,100074.84
2022-08-28T06:24:54.092Z,100076.25
2022-08-28T06:27:20.958Z,100079.34
2022-08-28T06:29:47.734Z,100077.31
2022-08-28T06:32:14.552Z,100079.16
2022-08-28T06:34:41.672Z,100087.25
2022-08-28T06:37:09.946Z,100086.12
2022-08-28T06:39:36.813Z,100082.53
2022-08-28T06:42:03.891Z,100088.72
2022-08-28T06:44:32.437Z,100091.13
2022-08-28T06:47:00.537Z,100096.28
2022-08-28T06:49:27.487Z,100096.84
2022-08-28T06:51:56.071Z,100092.09
2022-08-28T06:54:23.623Z,100089.28
2022-08-28T06:56:51.796Z,100083.78
2022-08-28T06:59:18.568Z,100083.41
2022-08-28T07:01:45.463Z,100083.12
2022-08-28T07:04:14.665Z,100087.87
2022-08-28T07:06:47.115Z,100083.88
2022-08-28T07:09:15.113Z,100082.53
2022-08-28T07:11:46.772Z,100085.53
2022-08-28T07:14:13.556Z,100090.94
2022-08-28T07:16:40.673Z,100087.66
2022-08-28T07:19:10.651Z,100098.91
2022-08-28T07:21:40.107Z,100092.91
2022-08-28T07:24:07.700Z,100092.34
2022-08-28T07:26:35.906Z,100087.63
2022-08-28T07:29:10.073Z,100095.53
2022-08-28T07:31:41.025Z,100096.25
2022-08-28T07:34:09.779Z,100095.91
2022-08-28T07:36:37.224Z,100104.94
2022-08-28T07:39:05.418Z,100098.66
2022-08-28T07:41:35.804Z,100101.25
2022-08-28T07:44:21.407Z,100100.66
2022-08-28T07:46:48.166Z,100107.00
2022-08-28T07:49:18.731Z,100105.66
2022-08-28T07:51:45.681Z,100096.25
2022-08-28T07:54:16.868Z,100109.16
2022-08-28T07:56:45.007Z,100103.06
2022-08-28T07:59:12.108Z,100101.66
2022-08-28T08:01:46.836Z,100106.59
2022-08-28T08:04:16.267Z,100105.16
2022-08-28T08:06:43.554Z,100109.44
2022-08-28T08:09:13.204Z,100110.00
2022-08-28T08:11:40.468Z,100111.87
2022-08-28T08:14:07.679Z,100107.12
2022-08-28T08:16:38.916Z,100112.34
2022-08-28T08:19:06.433Z,100109.75
2022-08-28T08:21:33.315Z,100118.28
2022-08-28T08:24:00.090Z,100112.38
2022-08-28T08:26:28.581Z,100109.66
2022-08-28T08:28:56.340Z,100109.06
2022-08-28T08:31:33.272Z,100107.22
2022-08-28T08:34:04.970Z,100107.63
2022-08-28T08:36:34.840Z,100109.38
2022-08-28T08:39:02.291Z,100110.22
2022-08-28T08:41:39.251Z,100111.66
2022-08-28T08:44:40.530Z,100112.34
2022-08-28T08:47:22.655Z,100114.84
2022-08-28T08:50:00.515Z,100114.66
2022-08-28T08:52:57.995Z,100120.19
2022-08-28T08:55:28.957Z,100128.94
2022-08-28T08:58:13.049Z,100129.09
2022-08-28T09:01:05.446Z,100124.69
2022-08-28T09:03:54.011Z,100121.66
2022-08-28T09:06:29.894Z,100123.53
2022-08-28T09:09:02.105Z,100129.97
2022-08-28T09:11:56.934Z,100128.75
2022-08-28T09:14:37.056Z,100131.97
2022-08-28T09:17:06.986Z,100130.22
2022-08-28T09:19:34.442Z,100130.91
2022-08-28T09:22:01.766Z,100122.41
2022-08-28T09:24:33.576Z,100133.62
2022-08-28T09:27:00.524Z,100122.59
2022-08-28T09:29:31.851Z,100113.56
2022-08-28T09:32:12.412Z,100116.81
2022-08-28T09:34:39.319Z,100111.47
2022-08-28T09:37:08.537Z,100111.72
2022-08-28T09:39:38.828Z,100117.53
2022-08-28T09:42:33.371Z,100111.81
2022-08-28T09:45:15.137Z,100120.19
2022-08-28T09:47:46.354Z,100109.47
2022-08-28T09:50:32.756Z,100113.34
2022-08-28T09:53:17.794Z,100116.50
2022-08-28T09:56:05.873Z,100115.50
2022-08-28T09:58:39.526Z,100109.81
2022-08-28T10:01:15.882Z,100109.66
2022-08-28T10:04:16.841Z,100104.59
2022-08-28T10:06:59.902Z,100103.00
2022-08-28T10:09:39.087Z,100105.72
2022-08-28T10:12:46.020Z,100102.00
2022-08-28T10:15:19.604Z,100097.13
2022-08-28T10:18:18.831Z,100088.84
2022-08-28T10:20:45.669Z,100089.53
2022-08-28T10:23:17.019Z,100097.13
2022-08-28T10:26:02.340Z,100092.94
2022-08-28T10:28:51.022Z,100094.53
2022-08-28T10:32:09.844Z,100091.69
2022-08-28T10:34:42.327Z,100082.78
2022-08-28T10:37:30.879Z,100078.09
2022-08-28T10:40:09.078Z,100075.09
2022-08-28T10:42:40.753Z,100074.13
2022-08-28T10:45:14.780Z,100085.00
2022-08-28T10:47:51.479Z,100084.22
2022-08-28T10:50:23.799Z,100064.16
2022-08-28T10:53:15.126Z,100079.19
2022-08-28T10:55:56.241Z,100066.22
2022-08-28T10:58:26.323Z,100071.88
2022-08-28T11:01:00.055Z,100066.12
2022-08-28T11:03:35.812Z,100072.91
2022-08-28T11:06:14.513Z,100073.22
2022-08-28T11:08:41.994Z,100079.06
2022-08-28T11:11:15.093Z,100071.13
2022-08-28T11:14:25.623Z,100078.84
2022-08-28T11:16:56.487Z,100079.62
2022-08-28T11:19:43.416Z,100077.16
2022-08-28T11:22:18.273Z,100079.28
2022-08-28T11:24:55.141Z,100075.56
2022-08-28T11:27:36.630Z,100069.53
2022-08-28T11:30:06.718Z,100073.16
2022-08-28T11:32:36.616Z,100067.06
2022-08-28T11:35:27.673Z,100069.91
2022-08-28T11:37:55.314Z,100072.81
2022-08-28T11:40:31.986Z,100066.09
2022-08-28T11:43:16.621Z,100071.16
2022-08-28T11:45:46.763Z,100067.47
2022-08-28T11:48:23.519Z,100061.37
2022-08-28T11:50:59.231Z,100058.38
2022-08-28T11:53:51.826Z,100061.75
2022-08-28T11:56:40.809Z,100065.91
2022-08-28T11:59:10.347Z,100057.09
2022-08-28T12:01:37.769Z,100053.03
2022-08-28T12:04:09.898Z,100045.19
2022-08-28T12:06:48.641Z,100048.75
2022-08-28T12:09:40.309Z,100045.56
2022-08-28T12:12:33.086Z,100043.28
2022-08-28T12:15:03.141Z,100048.50
2022-08-28T12:17:44.055Z,100045.47
2022-08-28T12:20:21.144Z,100055.66
2022-08-28T12:22:57.574Z,100052.06
2022-08-28T12:25:35.364Z,100052.84
2022-08-28T12:28:27.432Z,100047.22
2022-08-28T12:31:18.228Z,100044.63
2022-08-28T12:33:57.976Z,100052.12
2022-08-28T12:36:28.855Z,100042.59
2022-08-28T12:39:00.673Z,100035.84
2022-08-28T12:41:28.262Z,100033.84
2022-08-28T12:43:58.538Z,100027.47
2022-08-28T12:46:32.672Z,100024.16
2022-08-28T12:49:06.046Z,100032.38
2022-08-28T12:51:35.986Z,100028.81
2022-08-28T12:54:08.433Z,100025.66
2022-08-28T12:56:38.222Z,100020.34
2022-08-28T12:59:40.231Z,100018.31
2022-08-28T13:02:18.928Z,100015.53
2022-08-28T13:04:52.075Z,100009.28
2022-08-28T13:07:27.810Z,100013.94
2022-08-28T13:09:56.976Z,100015.28
2022-08-28T13:12:37.794Z,100004.94
2022-08-28T13:15:43.198Z,100015.22
2022-08-28T13:18:10.312Z,100004.19
2022-08-28T13:20:38.465Z,99998.12
2022-08-28T13:23:05.724Z,99999.13
2022-08-28T13:25:36.332Z,99999.25
2022-08-28T13:28:13.335Z,99998.28
2022-08-28T13:30:40.770Z,99997.28
2022-08-28T13:33:16.325Z,99990.88
2022-08-28T13:35:43.312Z,99988.97
2022-08-28T13:38:13.410Z,99983.34
2022-08-28T13:40:59.156Z,99980.72
2022-08-28T13:43:30.236Z,99981.69
2022-08-28T13:45:58.147Z,99971.37
2022-08-28T13:48:26.902Z,99976.28
2022-08-28T13:51:10.218Z,99962.03
2022-08-28T13:53:38.740Z,99969.00
2022-08-28T13:56:06.362Z,99969.31
2022-08-28T13:58:33.510Z,99964.91
2022-08-28T14:01:00.818Z,99967.59
2022-08-28T14:03:37.863Z,99962.06
2022-08-28T14:06:17.502Z,99952.34
2022-08-28T14:08:45.823Z,99962.19
2022-08-28T14:11:15.202Z,99960.91
2022-08-28T14:13:47.012Z,99961.25
2022-08-28T14:16:22.962Z,99971.72
2022-08-28T14:18:50.582Z,99971.63
2022-08-28T14:21:17.390Z,99964.91
2022-08-28T14:23:44.263Z,99971.47
2022-08-28T14:26:11.403Z,99967.28
2022-08-28T14:28:38.621Z,99962.59
2022-08-28T14:31:11.006Z,99966.78
2022-08-28T14:33:45.247Z,99962.72
2022-08-28T14:36:19.053Z,99957.50
2022-08-28T14:38:45.997Z,99972.22
2022-08-28T14:41:14.898Z,99970.50
2022-08-28T14:43:42.270Z,99971.28
2022-08-28T14:46:14.457Z,99979.28
2022-08-28T14:48:41.393Z,99976.59
2022-08-28T14:51:08.349Z,99995.53
2022-08-28T14:53:35.150Z,99993.22
2022-08-28T14:56:01.997Z,99995.25
2022-08-28T14:58:28.808Z,99988.38
2022-08-28T15:00:55.663Z,99985.75
2022-08-28T15:03:22.526Z,99981.13
2022-08-28T15:06:03.644Z,99984.47
2022-08-28T15:08:30.722Z,99987.00
2022-08-28T15:10:57.728Z,99978.91
2022-08-28T15:13:24.957Z,99974.16
2022-08-28T15:16:20.387Z,99982.81
2022-08-28T15:18:47.754Z,99983.94
2022-08-28T15:21:27.164Z,99983.44
2022-08-28T15:23:56.479Z,99981.56
2022-08-28T15:26:24.965Z,99990.75
2022-08-28T15:28:55.788Z,99991.72
2022-08-28T15:31:25.547Z,99990.59
2022-08-28T15:33:52.731Z,99986.13
2022-08-28T15:36:20.242Z,99993.72
2022-08-28T15:39:05.884Z,99988.34
2022-08-28T15:41:32.648Z,99982.88
2022-08-28T15:44:01.860Z,99978.81
2022-08-28T15:46:33.884Z,99998.41
2022-08-28T15:49:02.657Z,99995.13
2022-08-28T15:51:30.724Z,100008.72
2022-08-28T15:53:58.114Z,99999.03
2022-08-28T15:56:25.722Z,100005.50
2022-08-28T15:58:52.942Z,100005.03
2022-08-28T16:01:21.094Z,100008.53
2022-08-28T16:03:47.977Z,100001.91
2022-08-28T16:06:18.222Z,99991.63
2022-08-28T16:08:46.071Z,100002.38
2022-08-28T16:11:20.873Z,99996.28
2022-08-28T16:13:47.706Z,99994.00
2022-08-28T16:16:14.603Z,100002.13
2022-08-28T16:18:42.637Z,99999.44
2022-08-28T16:21:11.075Z,100004.03
2022-08-28T16:23:38.835Z,100006.91
2022-08-28T16:26:07.779Z,100010.34
2022-08-28T16:28:35.922Z,100019.59
2022-08-28T16:31:07.299Z,100024.47
2022-08-28T16:33:35.617Z,100015.06
2022-08-28T16:36:09.914Z,100014.97
2022-08-28T16:38:42.171Z,100019.31
2022-08-28T16:41:21.911Z,100021.19
2022-08-28T16:43:50.000Z,100028.09
2022-08-28T16:46:20.185Z,100034.69
2022-08-28T16:48:47.954Z,100029.88
2022-08-28T16:51:16.238Z,100036.06
2022-08-28T16:53:43.360Z,100045.44
2022-08-28T16:56:12.946Z,100059.59
2022-08-28T16:58:41.290Z,100064.00
2022-08-28T17:01:08.917Z,100063.16
2022-08-28T17:03:38.011Z,100073.31
2022-08-28T17:06:26.939Z,100060.16
2022-08-28T17:08:56.866Z,100064.56
2022-08-28T17:11:26.219Z,100071.84
2022-08-28T17:13:53.429Z,100067.00
2022-08-28T17:16:20.953Z,100073.69
2022-08-28T17:18:52.627Z,100078.06
2022-08-28T17:21:39.861Z,100077.94
2022-08-28T17:24:07.257Z,100086.47
2022-08-28T17:26:34.282Z,100080.56
2022-08-28T17:29:01.163Z,100085.31
2022-08-28T17:31:28.007Z,100091.81
2022-08-28T17:33:54.842Z,100099.53
2022-08-28T17:36:33.585Z,100099.53
2022-08-28T17:39:05.859Z,100106.03
2022-08-28T17:41:33.691Z,100118.53
2022-08-28T17:44:01.729Z,100116.84
2022-08-28T17:46:31.878Z,100126.91
2022-08-28T17:49:03.125Z,100128.47
2022-08-28T17:51:41.865Z,100134.81
2022-08-28T17:54:18.681Z,100141.56
2022-08-28T17:56:45.731Z,100142.72
2022-08-28T17:59:13.436Z,100146.09
2022-08-28T18:01:41.902Z,100148.34
2022-08-28T18:04:09.255Z,100155.34
2022-08-28T18:06:36.465Z,100151.12
2022-08-28T18:09:04.928Z,100149.66
2022-08-28T18:11:31.811Z,100150.13
2022-08-28T18:13:59.953Z,100146.81
2022-08-28T18:16:31.152Z,100154.94
2022-08-28T18:19:00.587Z,100151.25
2022-08-28T18:21:28.243Z,100160.03
2022-08-28T18:23:55.199Z,100173.44
2022-08-28T18:26:22.087Z,100176.66
2022-08-28T18:28:49.592Z,100187.97
2022-08-28T18:31:16.479Z,100185.94
2022-08-28T18:33:43.411Z,100190.72
2022-08-28T18:36:12.340Z,100190.75
2022-08-28T18:38:40.299Z,100187.41
2022-08-28T18:41:08.736Z,100192.50
2022-08-28T18:43:37.829Z,100200.31
2022-08-28T18:46:06.282Z,100189.13
2022-08-28T18:48:33.361Z,100188.44
2022-08-28T18:51:02.010Z,100182.06
2022-08-28T18:53:29.571Z,100192.44
2022-08-28T18:55:56.805Z,100185.53
2022-08-28T18:58:28.171Z,100186.09
2022-08-28T19:00:55.228Z,100200.63
2022-08-28T19:03:22.811Z,100202.72
2022-08-28T19:05:50.193Z,100209.66
2022-08-28T19:08:17.256Z,100213.97
2022-08-28T19:10:45.394Z,100215.47
2022-08-28T19:13:12.386Z,100225.47
2022-08-28T19:15:39.286Z,100234.84
2022-08-28T19:18:06.858Z,100231.16
2022-08-28T19:20:34.485Z,100237.84
2022-08-28T19:23:01.573Z,100239.66
2022-08-28T19:25:30.817Z,100246.87
2022-08-28T19:27:59.888Z,100241.69
2022-08-28T19:30:29.999Z,100243.00
2022-08-28T19:32:56.937Z,100245.38
2022-08-28T19:35:24.925Z,100246.31
2022-08-28T19:37:55.607Z,100243.00
2022-08-28T19:40:24.451Z,100251.94
2022-08-28T19:42:51.796Z,100253.75
2022-08-28T19:45:20.755Z,100249.97
2022-08-28T19:47:48.265Z,100252.16
2022-08-28T19:50:15.689Z,100250.41
2022-08-28T19:52:46.388Z,100265.16
2022-08-28T19:55:20.048Z,100263.87
2022-08-28T19:57:48.670Z,100264.94
2022-08-28T20:00:21.752Z,100262.38
2022-08-28T20:02:49.824Z,100263.34
2022-08-28T20:05:16.888Z,100278.94
2022-08-28T20:07:44.591Z,100269.25
2022-08-28T20:10:12.998Z,100281.06
2022-08-28T20:12:40.165Z,100280.53
2022-08-28T20:15:16.331Z,100272.59
2022-08-28T20:17:43.708Z,100287.13
2022-08-28T20:20:18.175Z,100287.31
2022-08-28T20:22:45.083Z,100285.72
2022-08-28T20:25:12.297Z,100291.09
2022-08-28T20:27:41.576Z,100297.66
2022-08-28T20:30:11.142Z,100294.84
2022-08-28T20:32:40.377Z,100304.13
2022-08-28T20:35:09.964Z,100296.59
2022-08-28T20:37:44.667Z,100304.44
2022-08-28T20:40:18.807Z,100307.38
2022-08-28T20:42:46.681Z,100295.94
2022-08-28T20:45:15.767Z,100299.50
2022-08-28T20:47:43.029Z,100300.34
2022-08-28T20:50:10.394Z,100303.16
2022-08-28T20:52:37.483Z,100303.47
2022-08-28T20:55:05.565Z,100308.63
2022-08-28T20:57:32.317Z,100301.75
2022-08-28T21:00:02.255Z,100313.50
2022-08-28T21:02:32.261Z,100321.09
2022-08-28T21:05:00.323Z,100329.72
2022-08-28T21:07:27.614Z,100317.16
2022-08-28T21:10:06.963Z,100320.59
2022-08-28T21:12:38.974Z,100313.88
2022-08-28T21:15:12.643Z,100314.72
2022-08-28T21:17:40.139Z,100319.16
2022-08-28T21:20:10.840Z,100313.72
2022-08-28T21:22:38.642Z,100317.53
2022-08-28T21:25:07.355Z,100323.75
2022-08-28T21:27:34.822Z,100322.22
2022-08-28T21:30:02.012Z,100333.81
2022-08-28T21:32:30.283Z,100325.06
2022-08-28T21:34:57.194Z,100323.28
2022-08-28T21:37:24.023Z,100324.41
2022-08-28T21:39:51.103Z,100334.31
2022-08-28T21:42:18.070Z,100333.16
2022-08-28T21:44:51.456Z,100337.94
2022-08-28T21:47:19.754Z,100340.81
2022-08-28T21:49:49.736Z,100335.91
2022-08-28T21:52:18.544Z,100346.84
2022-08-28T21:54:45.680Z,100348.87
2022-08-28T21:57:12.496Z,100344.59
2022-08-28T21:59:39.310Z,100343.31
2022-08-28T22:02:06.412Z,100344.34
2022-08-28T22:04:33.482Z,100351.34
2022-08-28T22:07:00.316Z,100355.00
2022-08-28T22:09:29.176Z,100356.44
2022-08-28T22:11:56.038Z,100361.88
2022-08-28T22:14:24.694Z,100360.72
2022-08-28T22:16:51.591Z,100357.19
2022-08-28T22:19:18.423Z,100361.78
2022-08-28T22:22:03.675Z,100362.75
2022-08-28T22:24:30.679Z,100364.75
2022-08-28T22:26:57.791Z,100364.28
2022-08-28T22:29:25.255Z,100362.19
2022-08-28T22:31:52.875Z,100357.97
2022-08-28T22:34:20.052Z,100350.59
2022-08-28T22:36:47.151Z,100343.78
2022-08-28T22:39:14.094Z,100345.81
2022-08-28T22:41:41.775Z,100339.97
2022-08-28T22:44:08.538Z,100344.97
2022-08-28T22:46:36.168Z,100341.31
2022-08-28T22:49:04.105Z,100341.53
2022-08-28T22:51:34.040Z,100343.25
2022-08-28T22:54:00.903Z,100341.84
2022-08-28T22:56:27.730Z,100348.66
2022-08-28T22:58:54.595Z,100344.63
2022-08-28T23:01:24.987Z,100347.88
2022-08-28T23:03:52.493Z,100346.06
2022-08-28T23:06:20.587Z,100353.78
2022-08-28T23:08:47.828Z,100347.88
2022-08-28T23:11:15.280Z,100355.81
2022-08-28T23:13:42.100Z,100350.81
2022-08-28T23:16:09.296Z,100357.31
2022-08-28T23:19:06.748Z,100350.97
2022-08-28T23:21:26.219Z,100352.50
2022-08-28T23:23:53.405Z,100348.44
2022-08-28T23:26:20.253Z,100354.12
2022-08-28T23:28:47.150Z,100355.22
2022-08-28T23:31:14.011Z,100357.38
2022-08-28T23:33:41.364Z,100351.19
2022-08-28T23:36:08.797Z,100357.56
2022-08-28T23:38:39.669Z,100365.56
2022-08-28T23:41:07.900Z,100357.31
2022-08-28T23:43:34.929Z,100361.97
2022-08-28T23:46:02.008Z,100368.50
2022-08-28T23:48:29.420Z,100368.09
2022-08-28T23:50:56.169Z,100381.59
2022-08-28T23:53:22.928Z,100381.06
2022-08-28T23:55:50.366Z,100369.66
2022-08-28T23:58:20.784Z,100371.03
